sensor_id;sensor_type;location;lat;lon;timestamp;temperature;humidity
13148;DHT22;6639;50.956;4.242;2024-01-11T00:01:49;5.50;87.50
13148;DHT22;6639;50.956;4.242;2024-01-11T00:04:18;5.50;87.50
13148;DHT22;6639;50.956;4.242;2024-01-11T00:06:45;5.60;87.50
13148;DHT22;6639;50.956;4.242;2024-01-11T00:09:12;5.40;87.60
13148;DHT22;6639;50.956;4.242;2024-01-11T00:11:40;5.30;88.10
13148;DHT22;6639;50.956;4.242;2024-01-11T00:14:07;5.40;87.80
13148;DHT22;6639;50.956;4.242;2024-01-11T00:16:34;5.40;87.90
13148;DHT22;6639;50.956;4.242;2024-01-11T00:19:01;5.60;88.00
13148;DHT22;6639;50.956;4.242;2024-01-11T00:21:28;5.50;87.80
13148;DHT22;6639;50.956;4.242;2024-01-11T00:23:55;5.50;87.80
13148;DHT22;6639;50.956;4.242;2024-01-11T00:26:21;5.80;88.00
13148;DHT22;6639;50.956;4.242;2024-01-11T00:28:51;5.70;87.80
13148;DHT22;6639;50.956;4.242;2024-01-11T00:31:18;5.70;87.70
13148;DHT22;6639;50.956;4.242;2024-01-11T00:33:45;5.50;87.70
13148;DHT22;6639;50.956;4.242;2024-01-11T00:36:17;5.70;87.90
13148;DHT22;6639;50.956;4.242;2024-01-11T00:38:44;5.70;87.90
13148;DHT22;6639;50.956;4.242;2024-01-11T00:41:11;5.80;87.70
13148;DHT22;6639;50.956;4.242;2024-01-11T00:43:38;5.80;87.60
13148;DHT22;6639;50.956;4.242;2024-01-11T00:46:07;5.80;88.20
13148;DHT22;6639;50.956;4.242;2024-01-11T00:48:33;5.90;87.20
13148;DHT22;6639;50.956;4.242;2024-01-11T00:51:00;5.80;87.40
13148;DHT22;6639;50.956;4.242;2024-01-11T00:53:27;5.70;87.40
13148;DHT22;6639;50.956;4.242;2024-01-11T00:55:56;5.80;87.40
13148;DHT22;6639;50.956;4.242;2024-01-11T00:58:23;5.70;87.40
13148;DHT22;6639;50.956;4.242;2024-01-11T01:00:50;5.70;87.10
13148;DHT22;6639;50.956;4.242;2024-01-11T01:03:20;5.80;87.30
13148;DHT22;6639;50.956;4.242;2024-01-11T01:05:47;5.80;87.10
13148;DHT22;6639;50.956;4.242;2024-01-11T01:08:14;5.80;87.00
13148;DHT22;6639;50.956;4.242;2024-01-11T01:10:41;5.80;87.00
13148;DHT22;6639;50.956;4.242;2024-01-11T01:13:08;5.80;86.90
13148;DHT22;6639;50.956;4.242;2024-01-11T01:15:35;5.80;86.90
13148;DHT22;6639;50.956;4.242;2024-01-11T01:18:02;5.70;86.80
13148;DHT22;6639;50.956;4.242;2024-01-11T01:20:31;5.70;86.90
13148;DHT22;6639;50.956;4.242;2024-01-11T01:22:58;5.60;87.10
13148;DHT22;6639;50.956;4.242;2024-01-11T01:25:26;5.50;86.90
13148;DHT22;6639;50.956;4.242;2024-01-11T01:27:53;5.40;87.10
13148;DHT22;6639;50.956;4.242;2024-01-11T01:30:20;4.80;87.40
13148;DHT22;6639;50.956;4.242;2024-01-11T01:32:47;4.70;88.30
13148;DHT22;6639;50.956;4.242;2024-01-11T01:35:14;4.70;89.10
13148;DHT22;6639;50.956;4.242;2024-01-11T01:37:42;4.70;89.20
13148;DHT22;6639;50.956;4.242;2024-01-11T01:40:10;4.60;88.50
13148;DHT22;6639;50.956;4.242;2024-01-11T01:42:41;4.90;90.10
13148;DHT22;6639;50.956;4.242;2024-01-11T01:45:09;5.10;88.90
13148;DHT22;6639;50.956;4.242;2024-01-11T01:47:36;5.20;88.70
13148;DHT22;6639;50.956;4.242;2024-01-11T01:50:04;5.30;88.20
13148;DHT22;6639;50.956;4.242;2024-01-11T01:52:33;5.40;88.10
13148;DHT22;6639;50.956;4.242;2024-01-11T01:55:01;5.30;87.70
13148;DHT22;6639;50.956;4.242;2024-01-11T01:57:31;5.40;87.90
13148;DHT22;6639;50.956;4.242;2024-01-11T02:00:00;5.50;87.80
13148;DHT22;6639;50.956;4.242;2024-01-11T02:02:29;5.50;87.70
13148;DHT22;6639;50.956;4.242;2024-01-11T02:04:57;5.50;87.20
13148;DHT22;6639;50.956;4.242;2024-01-11T02:07:24;5.50;87.50
13148;DHT22;6639;50.956;4.242;2024-01-11T02:09:52;5.30;88.00
13148;DHT22;6639;50.956;4.242;2024-01-11T02:12:20;5.30;88.30
13148;DHT22;6639;50.956;4.242;2024-01-11T02:14:47;5.30;88.40
13148;DHT22;6639;50.956;4.242;2024-01-11T02:17:14;5.40;88.40
13148;DHT22;6639;50.956;4.242;2024-01-11T02:19:41;5.40;88.40
13148;DHT22;6639;50.956;4.242;2024-01-11T02:22:12;5.40;88.30
13148;DHT22;6639;50.956;4.242;2024-01-11T02:24:43;5.40;88.30
13148;DHT22;6639;50.956;4.242;2024-01-11T02:27:10;5.40;88.10
13148;DHT22;6639;50.956;4.242;2024-01-11T02:29:37;5.40;88.00
13148;DHT22;6639;50.956;4.242;2024-01-11T02:32:04;5.40;87.90
13148;DHT22;6639;50.956;4.242;2024-01-11T02:34:32;5.40;87.80
13148;DHT22;6639;50.956;4.242;2024-01-11T02:36:59;5.40;87.80
13148;DHT22;6639;50.956;4.242;2024-01-11T02:39:29;5.40;87.70
13148;DHT22;6639;50.956;4.242;2024-01-11T02:41:57;5.40;87.70
13148;DHT22;6639;50.956;4.242;2024-01-11T02:44:24;5.40;87.40
13148;DHT22;6639;50.956;4.242;2024-01-11T02:46:51;5.40;87.60
13148;DHT22;6639;50.956;4.242;2024-01-11T02:49:18;5.40;87.60
13148;DHT22;6639;50.956;4.242;2024-01-11T02:51:45;5.40;87.60
13148;DHT22;6639;50.956;4.242;2024-01-11T02:54:12;5.50;87.60
13148;DHT22;6639;50.956;4.242;2024-01-11T02:56:39;5.50;87.60
13148;DHT22;6639;50.956;4.242;2024-01-11T02:59:07;5.40;87.60
13148;DHT22;6639;50.956;4.242;2024-01-11T03:01:34;5.40;88.00
13148;DHT22;6639;50.956;4.242;2024-01-11T03:04:01;5.30;88.10
13148;DHT22;6639;50.956;4.242;2024-01-11T03:06:28;5.40;88.00
13148;DHT22;6639;50.956;4.242;2024-01-11T03:08:55;5.40;88.00
13148;DHT22;6639;50.956;4.242;2024-01-11T03:11:22;5.30;88.30
13148;DHT22;6639;50.956;4.242;2024-01-11T03:13:49;5.30;88.10
13148;DHT22;6639;50.956;4.242;2024-01-11T03:16:18;5.30;87.90
13148;DHT22;6639;50.956;4.242;2024-01-11T03:18:44;5.30;88.10
13148;DHT22;6639;50.956;4.242;2024-01-11T03:21:11;5.30;88.20
13148;DHT22;6639;50.956;4.242;2024-01-11T03:23:38;5.20;88.10
13148;DHT22;6639;50.956;4.242;2024-01-11T03:26:12;5.20;88.10
13148;DHT22;6639;50.956;4.242;2024-01-11T03:28:39;5.30;88.20
13148;DHT22;6639;50.956;4.242;2024-01-11T03:31:08;5.40;88.10
13148;DHT22;6639;50.956;4.242;2024-01-11T03:33:36;5.30;87.50
13148;DHT22;6639;50.956;4.242;2024-01-11T03:36:07;5.20;88.00
13148;DHT22;6639;50.956;4.242;2024-01-11T03:38:34;5.00;88.10
13148;DHT22;6639;50.956;4.242;2024-01-11T03:41:01;5.00;88.20
13148;DHT22;6639;50.956;4.242;2024-01-11T03:43:28;4.90;88.10
13148;DHT22;6639;50.956;4.242;2024-01-11T03:45:55;5.00;88.10
13148;DHT22;6639;50.956;4.242;2024-01-11T03:48:22;5.00;88.10
13148;DHT22;6639;50.956;4.242;2024-01-11T03:50:50;5.00;87.90
13148;DHT22;6639;50.956;4.242;2024-01-11T03:53:17;5.10;88.00
13148;DHT22;6639;50.956;4.242;2024-01-11T03:55:45;5.00;88.10
13148;DHT22;6639;50.956;4.242;2024-01-11T03:58:11;4.80;88.10
13148;DHT22;6639;50.956;4.242;2024-01-11T04:00:38;4.90;88.20
13148;DHT22;6639;50.956;4.242;2024-01-11T04:03:06;4.90;88.50
13148;DHT22;6639;50.956;4.242;2024-01-11T04:05:33;4.80;88.40
13148;DHT22;6639;50.956;4.242;2024-01-11T04:08:05;4.80;88.80
13148;DHT22;6639;50.956;4.242;2024-01-11T04:10:32;4.70;89.00
13148;DHT22;6639;50.956;4.242;2024-01-11T04:12:58;4.80;88.50
13148;DHT22;6639;50.956;4.242;2024-01-11T04:15:25;4.90;88.10
13148;DHT22;6639;50.956;4.242;2024-01-11T04:17:52;4.80;88.70
13148;DHT22;6639;50.956;4.242;2024-01-11T04:20:19;4.70;89.50
13148;DHT22;6639;50.956;4.242;2024-01-11T04:22:46;4.70;88.40
13148;DHT22;6639;50.956;4.242;2024-01-11T04:25:14;4.70;89.30
13148;DHT22;6639;50.956;4.242;2024-01-11T04:27:41;4.80;88.80
13148;DHT22;6639;50.956;4.242;2024-01-11T04:30:08;4.80;88.40
13148;DHT22;6639;50.956;4.242;2024-01-11T04:32:36;4.70;88.80
13148;DHT22;6639;50.956;4.242;2024-01-11T04:35:03;4.60;89.10
13148;DHT22;6639;50.956;4.242;2024-01-11T04:37:30;4.60;89.10
13148;DHT22;6639;50.956;4.242;2024-01-11T04:39:57;4.60;89.40
13148;DHT22;6639;50.956;4.242;2024-01-11T04:42:27;4.60;89.70
13148;DHT22;6639;50.956;4.242;2024-01-11T04:44:54;4.60;89.80
13148;DHT22;6639;50.956;4.242;2024-01-11T04:47:21;4.70;89.80
13148;DHT22;6639;50.956;4.242;2024-01-11T04:49:48;4.70;89.90
13148;DHT22;6639;50.956;4.242;2024-01-11T04:52:15;4.70;90.00
13148;DHT22;6639;50.956;4.242;2024-01-11T04:54:42;4.70;90.00
13148;DHT22;6639;50.956;4.242;2024-01-11T04:57:09;4.80;89.90
13148;DHT22;6639;50.956;4.242;2024-01-11T04:59:37;4.70;89.80
13148;DHT22;6639;50.956;4.242;2024-01-11T05:02:04;4.70;90.00
13148;DHT22;6639;50.956;4.242;2024-01-11T05:04:31;4.70;89.80
13148;DHT22;6639;50.956;4.242;2024-01-11T05:06:58;4.60;90.00
13148;DHT22;6639;50.956;4.242;2024-01-11T05:09:25;4.60;90.00
13148;DHT22;6639;50.956;4.242;2024-01-11T05:11:52;4.70;90.00
13148;DHT22;6639;50.956;4.242;2024-01-11T05:14:18;4.60;90.00
13148;DHT22;6639;50.956;4.242;2024-01-11T05:16:54;4.70;90.00
13148;DHT22;6639;50.956;4.242;2024-01-11T05:19:24;4.60;90.00
13148;DHT22;6639;50.956;4.242;2024-01-11T05:21:51;4.60;89.40
13148;DHT22;6639;50.956;4.242;2024-01-11T05:24:18;4.60;89.60
13148;DHT22;6639;50.956;4.242;2024-01-11T05:26:46;4.50;90.00
13148;DHT22;6639;50.956;4.242;2024-01-11T05:29:13;4.60;90.00
13148;DHT22;6639;50.956;4.242;2024-01-11T05:31:40;4.80;90.00
13148;DHT22;6639;50.956;4.242;2024-01-11T05:34:10;4.70;89.80
13148;DHT22;6639;50.956;4.242;2024-01-11T05:36:38;4.50;89.90
13148;DHT22;6639;50.956;4.242;2024-01-11T05:39:05;4.50;90.10
13148;DHT22;6639;50.956;4.242;2024-01-11T05:41:32;4.40;89.80
13148;DHT22;6639;50.956;4.242;2024-01-11T05:43:59;4.40;90.00
13148;DHT22;6639;50.956;4.242;2024-01-11T05:46:27;4.40;90.00
13148;DHT22;6639;50.956;4.242;2024-01-11T05:48:54;4.40;90.00
13148;DHT22;6639;50.956;4.242;2024-01-11T05:51:22;4.20;90.00
13148;DHT22;6639;50.956;4.242;2024-01-11T05:53:49;4.30;90.40
13148;DHT22;6639;50.956;4.242;2024-01-11T05:56:16;4.30;90.50
13148;DHT22;6639;50.956;4.242;2024-01-11T05:58:45;4.20;90.40
13148;DHT22;6639;50.956;4.242;2024-01-11T06:01:12;4.30;90.40
13148;DHT22;6639;50.956;4.242;2024-01-11T06:03:40;4.40;90.10
13148;DHT22;6639;50.956;4.242;2024-01-11T06:06:07;4.40;90.20
13148;DHT22;6639;50.956;4.242;2024-01-11T06:08:35;4.60;90.30
13148;DHT22;6639;50.956;4.242;2024-01-11T06:11:02;4.20;90.40
13148;DHT22;6639;50.956;4.242;2024-01-11T06:13:29;3.90;90.60
13148;DHT22;6639;50.956;4.242;2024-01-11T06:15:56;3.90;90.90
13148;DHT22;6639;50.956;4.242;2024-01-11T06:18:23;3.70;90.80
13148;DHT22;6639;50.956;4.242;2024-01-11T06:20:50;3.50;90.90
13148;DHT22;6639;50.956;4.242;2024-01-11T06:23:17;3.50;91.30
13148;DHT22;6639;50.956;4.242;2024-01-11T06:25:46;3.20;91.20
13148;DHT22;6639;50.956;4.242;2024-01-11T06:28:13;2.90;92.50
13148;DHT22;6639;50.956;4.242;2024-01-11T06:30:42;3.50;92.40
13148;DHT22;6639;50.956;4.242;2024-01-11T06:33:09;3.80;92.00
13148;DHT22;6639;50.956;4.242;2024-01-11T06:35:36;4.00;91.70
13148;DHT22;6639;50.956;4.242;2024-01-11T06:38:04;4.20;91.40
13148;DHT22;6639;50.956;4.242;2024-01-11T06:40:31;4.00;91.30
13148;DHT22;6639;50.956;4.242;2024-01-11T06:42:59;4.20;91.20
13148;DHT22;6639;50.956;4.242;2024-01-11T06:45:26;4.20;91.00
13148;DHT22;6639;50.956;4.242;2024-01-11T06:47:53;4.30;91.10
13148;DHT22;6639;50.956;4.242;2024-01-11T06:50:20;4.40;91.00
13148;DHT22;6639;50.956;4.242;2024-01-11T06:52:47;4.40;90.90
13148;DHT22;6639;50.956;4.242;2024-01-11T06:55:14;4.40;90.80
13148;DHT22;6639;50.956;4.242;2024-01-11T06:57:41;4.40;90.90
13148;DHT22;6639;50.956;4.242;2024-01-11T07:00:10;4.50;90.80
13148;DHT22;6639;50.956;4.242;2024-01-11T07:02:39;4.50;90.60
13148;DHT22;6639;50.956;4.242;2024-01-11T07:05:06;4.50;90.50
13148;DHT22;6639;50.956;4.242;2024-01-11T07:07:33;4.50;90.70
13148;DHT22;6639;50.956;4.242;2024-01-11T07:10:00;4.50;90.50
13148;DHT22;6639;50.956;4.242;2024-01-11T07:12:27;4.60;90.20
13148;DHT22;6639;50.956;4.242;2024-01-11T07:14:54;4.70;90.20
13148;DHT22;6639;50.956;4.242;2024-01-11T07:17:22;4.50;90.10
13148;DHT22;6639;50.956;4.242;2024-01-11T07:19:50;4.60;90.20
13148;DHT22;6639;50.956;4.242;2024-01-11T07:22:17;4.20;90.50
13148;DHT22;6639;50.956;4.242;2024-01-11T07:24:44;4.10;90.90
13148;DHT22;6639;50.956;4.242;2024-01-11T07:27:12;4.10;90.90
13148;DHT22;6639;50.956;4.242;2024-01-11T07:29:39;4.20;91.00
13148;DHT22;6639;50.956;4.242;2024-01-11T07:32:06;4.30;90.90
13148;DHT22;6639;50.956;4.242;2024-01-11T07:34:35;4.40;90.80
13148;DHT22;6639;50.956;4.242;2024-01-11T07:37:03;4.40;90.80
13148;DHT22;6639;50.956;4.242;2024-01-11T07:39:30;4.40;90.60
13148;DHT22;6639;50.956;4.242;2024-01-11T07:41:57;4.50;90.50
13148;DHT22;6639;50.956;4.242;2024-01-11T07:44:24;4.20;90.40
13148;DHT22;6639;50.956;4.242;2024-01-11T07:46:51;4.00;90.90
13148;DHT22;6639;50.956;4.242;2024-01-11T07:49:18;3.70;91.20
13148;DHT22;6639;50.956;4.242;2024-01-11T07:51:47;3.30;91.70
13148;DHT22;6639;50.956;4.242;2024-01-11T07:54:14;3.40;91.90
13148;DHT22;6639;50.956;4.242;2024-01-11T07:56:41;3.60;91.80
13148;DHT22;6639;50.956;4.242;2024-01-11T07:59:08;3.40;91.70
13148;DHT22;6639;50.956;4.242;2024-01-11T08:01:39;3.70;91.90
13148;DHT22;6639;50.956;4.242;2024-01-11T08:04:05;3.90;91.70
13148;DHT22;6639;50.956;4.242;2024-01-11T08:06:32;4.00;91.90
13148;DHT22;6639;50.956;4.242;2024-01-11T08:09:01;4.30;91.90
13148;DHT22;6639;50.956;4.242;2024-01-11T08:11:30;4.40;91.70
13148;DHT22;6639;50.956;4.242;2024-01-11T08:13:58;4.40;91.70
13148;DHT22;6639;50.956;4.242;2024-01-11T08:16:26;4.40;91.70
13148;DHT22;6639;50.956;4.242;2024-01-11T08:18:53;4.60;91.70
13148;DHT22;6639;50.956;4.242;2024-01-11T08:21:20;4.60;91.50
13148;DHT22;6639;50.956;4.242;2024-01-11T08:23:47;4.10;91.30
13148;DHT22;6639;50.956;4.242;2024-01-11T08:26:16;4.00;92.00
13148;DHT22;6639;50.956;4.242;2024-01-11T08:28:45;4.50;92.10
13148;DHT22;6639;50.956;4.242;2024-01-11T08:31:12;4.70;91.80
13148;DHT22;6639;50.956;4.242;2024-01-11T08:33:39;4.80;91.30
13148;DHT22;6639;50.956;4.242;2024-01-11T08:36:06;4.30;91.50
13148;DHT22;6639;50.956;4.242;2024-01-11T08:38:35;4.10;91.90
13148;DHT22;6639;50.956;4.242;2024-01-11T08:41:02;3.90;92.50
13148;DHT22;6639;50.956;4.242;2024-01-11T08:43:31;4.10;92.20
13148;DHT22;6639;50.956;4.242;2024-01-11T08:45:58;4.00;92.30
13148;DHT22;6639;50.956;4.242;2024-01-11T08:48:25;4.20;92.60
13148;DHT22;6639;50.956;4.242;2024-01-11T08:50:52;3.90;92.30
13148;DHT22;6639;50.956;4.242;2024-01-11T08:53:19;3.80;93.10
13148;DHT22;6639;50.956;4.242;2024-01-11T08:56:05;3.10;94.10
13148;DHT22;6639;50.956;4.242;2024-01-11T08:58:34;2.90;94.40
13148;DHT22;6639;50.956;4.242;2024-01-11T09:01:02;2.10;95.60
13148;DHT22;6639;50.956;4.242;2024-01-11T09:03:29;2.50;97.30
13148;DHT22;6639;50.956;4.242;2024-01-11T09:05:56;2.80;96.70
13148;DHT22;6639;50.956;4.242;2024-01-11T09:08:23;3.30;96.20
13148;DHT22;6639;50.956;4.242;2024-01-11T09:10:50;3.80;95.70
13148;DHT22;6639;50.956;4.242;2024-01-11T09:13:18;3.90;95.20
13148;DHT22;6639;50.956;4.242;2024-01-11T09:15:46;4.50;95.10
13148;DHT22;6639;50.956;4.242;2024-01-11T09:18:13;5.00;93.90
13148;DHT22;6639;50.956;4.242;2024-01-11T09:20:41;5.40;94.20
13148;DHT22;6639;50.956;4.242;2024-01-11T09:23:08;5.10;93.20
13148;DHT22;6639;50.956;4.242;2024-01-11T09:25:35;5.50;93.40
13148;DHT22;6639;50.956;4.242;2024-01-11T09:28:02;5.00;93.20
13148;DHT22;6639;50.956;4.242;2024-01-11T09:30:30;4.90;93.10
13148;DHT22;6639;50.956;4.242;2024-01-11T09:32:58;5.10;93.10
13148;DHT22;6639;50.956;4.242;2024-01-11T09:35:25;5.50;93.60
13148;DHT22;6639;50.956;4.242;2024-01-11T09:37:52;6.00;93.30
13148;DHT22;6639;50.956;4.242;2024-01-11T09:40:20;6.40;92.30
13148;DHT22;6639;50.956;4.242;2024-01-11T09:42:47;6.80;91.70
13148;DHT22;6639;50.956;4.242;2024-01-11T09:45:17;6.50;90.70
13148;DHT22;6639;50.956;4.242;2024-01-11T09:47:44;6.10;92.40
13148;DHT22;6639;50.956;4.242;2024-01-11T09:50:14;7.10;92.90
13148;DHT22;6639;50.956;4.242;2024-01-11T09:52:46;7.60;91.60
13148;DHT22;6639;50.956;4.242;2024-01-11T09:55:14;8.00;90.30
13148;DHT22;6639;50.956;4.242;2024-01-11T09:57:44;8.00;90.40
13148;DHT22;6639;50.956;4.242;2024-01-11T10:00:14;8.90;90.50
13148;DHT22;6639;50.956;4.242;2024-01-11T10:02:44;9.00;87.70
13148;DHT22;6639;50.956;4.242;2024-01-11T10:05:13;8.80;87.90
13148;DHT22;6639;50.956;4.242;2024-01-11T10:07:40;8.90;86.40
13148;DHT22;6639;50.956;4.242;2024-01-11T10:10:08;9.40;87.70
13148;DHT22;6639;50.956;4.242;2024-01-11T10:12:35;9.70;84.90
13148;DHT22;6639;50.956;4.242;2024-01-11T10:15:05;10.00;83.30
13148;DHT22;6639;50.956;4.242;2024-01-11T10:17:35;10.20;83.70
13148;DHT22;6639;50.956;4.242;2024-01-11T10:20:02;9.90;83.40
13148;DHT22;6639;50.956;4.242;2024-01-11T10:22:32;9.60;85.00
13148;DHT22;6639;50.956;4.242;2024-01-11T10:25:09;10.40;83.10
13148;DHT22;6639;50.956;4.242;2024-01-11T10:27:37;10.60;81.20
13148;DHT22;6639;50.956;4.242;2024-01-11T10:30:06;11.10;82.20
13148;DHT22;6639;50.956;4.242;2024-01-11T10:32:34;11.50;81.60
13148;DHT22;6639;50.956;4.242;2024-01-11T10:35:01;11.30;79.90
13148;DHT22;6639;50.956;4.242;2024-01-11T10:37:32;11.20;79.20
13148;DHT22;6639;50.956;4.242;2024-01-11T10:40:03;10.80;79.60
13148;DHT22;6639;50.956;4.242;2024-01-11T10:42:39;10.60;80.20
13148;DHT22;6639;50.956;4.242;2024-01-11T10:45:15;10.80;79.70
13148;DHT22;6639;50.956;4.242;2024-01-11T10:47:53;10.70;80.50
13148;DHT22;6639;50.956;4.242;2024-01-11T10:50:24;10.40;79.50
13148;DHT22;6639;50.956;4.242;2024-01-11T10:53:25;10.70;81.10
13148;DHT22;6639;50.956;4.242;2024-01-11T10:55:55;10.40;79.70
13148;DHT22;6639;50.956;4.242;2024-01-11T10:58:39;10.30;79.90
13148;DHT22;6639;50.956;4.242;2024-01-11T11:01:14;9.40;81.30
13148;DHT22;6639;50.956;4.242;2024-01-11T11:03:44;9.30;84.20
13148;DHT22;6639;50.956;4.242;2024-01-11T11:06:13;9.60;84.40
13148;DHT22;6639;50.956;4.242;2024-01-11T11:08:41;9.70;83.30
13148;DHT22;6639;50.956;4.242;2024-01-11T11:11:08;9.30;84.00
13148;DHT22;6639;50.956;4.242;2024-01-11T11:13:36;8.70;84.30
13148;DHT22;6639;50.956;4.242;2024-01-11T11:16:03;8.70;86.20
13148;DHT22;6639;50.956;4.242;2024-01-11T11:18:31;9.20;85.90
13148;DHT22;6639;50.956;4.242;2024-01-11T11:21:00;10.10;85.00
13148;DHT22;6639;50.956;4.242;2024-01-11T11:23:27;10.80;83.30
13148;DHT22;6639;50.956;4.242;2024-01-11T11:25:56;11.40;82.50
13148;DHT22;6639;50.956;4.242;2024-01-11T11:28:23;12.30;79.90
13148;DHT22;6639;50.956;4.242;2024-01-11T11:30:52;12.50;78.70
13148;DHT22;6639;50.956;4.242;2024-01-11T11:33:23;11.80;77.90
13148;DHT22;6639;50.956;4.242;2024-01-11T11:35:53;11.60;77.80
13148;DHT22;6639;50.956;4.242;2024-01-11T11:38:21;11.40;79.30
13148;DHT22;6639;50.956;4.242;2024-01-11T11:40:51;11.60;80.50
13148;DHT22;6639;50.956;4.242;2024-01-11T11:43:21;12.00;79.20
13148;DHT22;6639;50.956;4.242;2024-01-11T11:45:49;11.60;78.70
13148;DHT22;6639;50.956;4.242;2024-01-11T11:48:52;10.90;77.60
13148;DHT22;6639;50.956;4.242;2024-01-11T11:51:20;10.40;80.90
13148;DHT22;6639;50.956;4.242;2024-01-11T11:53:49;10.60;80.40
13148;DHT22;6639;50.956;4.242;2024-01-11T11:56:17;10.80;80.00
13148;DHT22;6639;50.956;4.242;2024-01-11T11:58:46;10.70;80.00
13148;DHT22;6639;50.956;4.242;2024-01-11T12:01:16;10.20;80.90
13148;DHT22;6639;50.956;4.242;2024-01-11T12:03:44;11.10;81.40
13148;DHT22;6639;50.956;4.242;2024-01-11T12:06:15;11.30;80.00
13148;DHT22;6639;50.956;4.242;2024-01-11T12:08:43;10.00;81.00
13148;DHT22;6639;50.956;4.242;2024-01-11T12:11:13;10.20;82.30
13148;DHT22;6639;50.956;4.242;2024-01-11T12:13:41;11.10;81.50
13148;DHT22;6639;50.956;4.242;2024-01-11T12:16:11;11.20;79.90
13148;DHT22;6639;50.956;4.242;2024-01-11T12:18:38;10.80;78.70
13148;DHT22;6639;50.956;4.242;2024-01-11T12:21:05;10.40;79.80
13148;DHT22;6639;50.956;4.242;2024-01-11T12:23:33;9.90;81.80
13148;DHT22;6639;50.956;4.242;2024-01-11T12:26:01;9.70;85.10
13148;DHT22;6639;50.956;4.242;2024-01-11T12:28:31;10.20;81.90
13148;DHT22;6639;50.956;4.242;2024-01-11T12:30:58;10.20;83.00
13148;DHT22;6639;50.956;4.242;2024-01-11T12:33:27;10.50;80.50
13148;DHT22;6639;50.956;4.242;2024-01-11T12:35:54;10.60;80.40
13148;DHT22;6639;50.956;4.242;2024-01-11T12:38:21;11.00;80.90
13148;DHT22;6639;50.956;4.242;2024-01-11T12:40:48;10.60;79.70
13148;DHT22;6639;50.956;4.242;2024-01-11T12:43:15;9.00;80.20
13148;DHT22;6639;50.956;4.242;2024-01-11T12:45:43;8.60;83.30
13148;DHT22;6639;50.956;4.242;2024-01-11T12:48:10;9.20;83.40
13148;DHT22;6639;50.956;4.242;2024-01-11T12:50:41;8.50;82.40
13148;DHT22;6639;50.956;4.242;2024-01-11T12:53:09;8.40;83.70
13148;DHT22;6639;50.956;4.242;2024-01-11T12:55:37;8.70;85.00
13148;DHT22;6639;50.956;4.242;2024-01-11T12:58:06;8.80;85.40
13148;DHT22;6639;50.956;4.242;2024-01-11T13:00:32;8.50;84.20
13148;DHT22;6639;50.956;4.242;2024-01-11T13:02:59;8.00;86.50
13148;DHT22;6639;50.956;4.242;2024-01-11T13:05:26;7.50;87.20
13148;DHT22;6639;50.956;4.242;2024-01-11T13:07:55;7.50;87.00
13148;DHT22;6639;50.956;4.242;2024-01-11T13:10:22;7.50;89.40
13148;DHT22;6639;50.956;4.242;2024-01-11T13:12:53;7.70;88.10
13148;DHT22;6639;50.956;4.242;2024-01-11T13:15:20;8.20;87.50
13148;DHT22;6639;50.956;4.242;2024-01-11T13:17:49;8.80;87.70
13148;DHT22;6639;50.956;4.242;2024-01-11T13:20:17;9.40;86.00
13148;DHT22;6639;50.956;4.242;2024-01-11T13:22:44;9.90;85.90
13148;DHT22;6639;50.956;4.242;2024-01-11T13:25:13;9.50;83.80
13148;DHT22;6639;50.956;4.242;2024-01-11T13:27:40;9.60;85.00
13148;DHT22;6639;50.956;4.242;2024-01-11T13:30:07;9.10;85.70
13148;DHT22;6639;50.956;4.242;2024-01-11T13:32:34;8.60;84.80
13148;DHT22;6639;50.956;4.242;2024-01-11T13:35:01;9.00;85.70
13148;DHT22;6639;50.956;4.242;2024-01-11T13:37:29;9.60;84.40
13148;DHT22;6639;50.956;4.242;2024-01-11T13:39:56;9.30;83.80
13148;DHT22;6639;50.956;4.242;2024-01-11T13:42:24;9.60;83.50
13148;DHT22;6639;50.956;4.242;2024-01-11T13:44:51;9.80;83.60
13148;DHT22;6639;50.956;4.242;2024-01-11T13:47:18;9.70;83.60
13148;DHT22;6639;50.956;4.242;2024-01-11T13:49:46;9.30;83.60
13148;DHT22;6639;50.956;4.242;2024-01-11T13:52:12;9.00;82.80
13148;DHT22;6639;50.956;4.242;2024-01-11T13:54:39;9.20;83.20
13148;DHT22;6639;50.956;4.242;2024-01-11T13:57:06;9.00;83.70
13148;DHT22;6639;50.956;4.242;2024-01-11T13:59:35;8.90;84.40
13148;DHT22;6639;50.956;4.242;2024-01-11T14:02:01;9.60;84.40
13148;DHT22;6639;50.956;4.242;2024-01-11T14:04:29;10.00;81.20
13148;DHT22;6639;50.956;4.242;2024-01-11T14:06:56;10.30;80.60
13148;DHT22;6639;50.956;4.242;2024-01-11T14:09:23;9.90;81.10
13148;DHT22;6639;50.956;4.242;2024-01-11T14:11:50;9.90;81.80
13148;DHT22;6639;50.956;4.242;2024-01-11T14:14:17;9.50;80.10
13148;DHT22;6639;50.956;4.242;2024-01-11T14:16:47;9.00;80.80
13148;DHT22;6639;50.956;4.242;2024-01-11T14:19:14;8.80;81.90
13148;DHT22;6639;50.956;4.242;2024-01-11T14:21:41;8.50;82.20
13148;DHT22;6639;50.956;4.242;2024-01-11T14:24:08;8.10;84.10
13148;DHT22;6639;50.956;4.242;2024-01-11T14:26:35;8.80;84.30
13148;DHT22;6639;50.956;4.242;2024-01-11T14:29:02;9.40;82.50
13148;DHT22;6639;50.956;4.242;2024-01-11T14:31:29;9.10;83.70
13148;DHT22;6639;50.956;4.242;2024-01-11T14:33:57;9.20;84.00
13148;DHT22;6639;50.956;4.242;2024-01-11T14:36:24;8.90;84.80
13148;DHT22;6639;50.956;4.242;2024-01-11T14:38:51;9.30;84.10
13148;DHT22;6639;50.956;4.242;2024-01-11T14:41:18;9.60;83.10
13148;DHT22;6639;50.956;4.242;2024-01-11T14:43:45;9.40;82.40
13148;DHT22;6639;50.956;4.242;2024-01-11T14:46:12;9.50;82.10
13148;DHT22;6639;50.956;4.242;2024-01-11T14:48:39;9.40;83.00
13148;DHT22;6639;50.956;4.242;2024-01-11T14:51:08;9.10;82.00
13148;DHT22;6639;50.956;4.242;2024-01-11T14:53:35;8.50;84.20
13148;DHT22;6639;50.956;4.242;2024-01-11T14:56:02;7.40;84.40
13148;DHT22;6639;50.956;4.242;2024-01-11T14:58:29;6.30;88.50
13148;DHT22;6639;50.956;4.242;2024-01-11T15:00:56;5.50;91.70
13148;DHT22;6639;50.956;4.242;2024-01-11T15:03:23;5.00;93.60
13148;DHT22;6639;50.956;4.242;2024-01-11T15:05:51;5.40;94.40
13148;DHT22;6639;50.956;4.242;2024-01-11T15:08:20;5.40;94.30
13148;DHT22;6639;50.956;4.242;2024-01-11T15:10:47;5.30;95.30
13148;DHT22;6639;50.956;4.242;2024-01-11T15:13:14;5.30;96.00
13148;DHT22;6639;50.956;4.242;2024-01-11T15:15:41;5.80;95.70
13148;DHT22;6639;50.956;4.242;2024-01-11T15:18:08;5.80;96.30
13148;DHT22;6639;50.956;4.242;2024-01-11T15:20:36;6.30;96.50
13148;DHT22;6639;50.956;4.242;2024-01-11T15:23:03;6.20;96.90
13148;DHT22;6639;50.956;4.242;2024-01-11T15:25:32;6.00;97.50
13148;DHT22;6639;50.956;4.242;2024-01-11T15:27:59;6.10;97.70
13148;DHT22;6639;50.956;4.242;2024-01-11T15:30:26;6.30;98.10
13148;DHT22;6639;50.956;4.242;2024-01-11T15:32:52;5.90;98.30
13148;DHT22;6639;50.956;4.242;2024-01-11T15:35:19;6.80;98.40
13148;DHT22;6639;50.956;4.242;2024-01-11T15:37:46;6.30;98.50
13148;DHT22;6639;50.956;4.242;2024-01-11T15:40:14;6.20;99.90
13148;DHT22;6639;50.956;4.242;2024-01-11T15:42:42;6.20;99.90
13148;DHT22;6639;50.956;4.242;2024-01-11T15:45:09;6.30;99.90
13148;DHT22;6639;50.956;4.242;2024-01-11T15:47:37;6.10;99.90
13148;DHT22;6639;50.956;4.242;2024-01-11T15:50:05;6.60;99.90
13148;DHT22;6639;50.956;4.242;2024-01-11T15:52:36;6.90;99.90
13148;DHT22;6639;50.956;4.242;2024-01-11T15:55:03;6.30;99.90
13148;DHT22;6639;50.956;4.242;2024-01-11T15:57:31;6.70;99.90
13148;DHT22;6639;50.956;4.242;2024-01-11T15:59:59;6.90;99.90
13148;DHT22;6639;50.956;4.242;2024-01-11T16:02:26;7.20;99.90
13148;DHT22;6639;50.956;4.242;2024-01-11T16:04:53;6.60;99.90